Time;durP1;ratioP1;P1;durP2;ratioP2;P2;SDS_P1;SDS_P2;PMS_P1;PMS_P2;Temp;Humidity;BMP_temperature;BMP_pressure;BME280_temperature;BME280_humidity;BME280_pressure;Samples;Min_cycle;Max_cycle;Signal;HPM_P1;HPM_P2
2023/04/17 00:00:50;;;;;;;10.20;5.90;;;;;;;5.09;100.00;98643.84;2571632;28;20063;-83
2023/04/17 00:02:09;;;;;;;8.70;5.28;;;;;;;4.93;100.00;98645.59;2572316;28;20042;-83
2023/04/17 00:03:25;;;;;;;8.15;5.47;;;;;;;4.98;100.00;98640.41;2572101;28;20124;-83
2023/04/17 00:04:41;;;;;;;10.40;6.00;;;;;;;4.75;100.00;98643.91;2572216;28;20050;-83
2023/04/17 00:05:57;;;;;;;11.00;5.65;;;;;;;4.63;100.00;98634.41;2572034;28;20050;-83
2023/04/17 00:07:13;;;;;;;10.57;6.03;;;;;;;4.74;100.00;98642.16;2572037;28;20471;-83
2023/04/17 00:08:28;;;;;;;9.50;5.60;;;;;;;4.53;100.00;98636.16;2572188;28;20047;-82
2023/04/17 00:09:44;;;;;;;10.30;5.95;;;;;;;4.43;100.00;98640.47;2572009;28;20050;-83
2023/04/17 00:10:59;;;;;;;10.00;5.57;;;;;;;4.32;100.00;98637.00;2572099;28;20092;-82
2023/04/17 00:12:15;;;;;;;9.23;5.78;;;;;;;4.24;100.00;98634.41;2572106;28;20093;-82
2023/04/17 00:13:31;;;;;;;7.53;4.75;;;;;;;4.28;100.00;98638.72;2571880;28;20498;-82
2023/04/17 00:14:47;;;;;;;12.43;6.15;;;;;;;4.32;100.00;98635.25;2572195;28;20085;-82
2023/04/17 00:16:02;;;;;;;9.32;5.13;;;;;;;4.24;100.00;98635.25;2572945;28;20069;-82
2023/04/17 00:17:18;;;;;;;10.45;5.93;;;;;;;4.31;100.00;98633.53;2581949;28;20078;-82
2023/04/17 00:18:33;;;;;;;9.90;5.85;;;;;;;4.50;100.00;98630.97;2582144;28;20038;-82
2023/04/17 00:19:49;;;;;;;8.70;5.70;;;;;;;4.46;100.00;98627.50;2582051;28;20057;-83
2023/04/17 00:21:05;;;;;;;11.02;5.43;;;;;;;4.33;100.00;98628.38;2582054;28;20589;-83
2023/04/17 00:22:21;;;;;;;10.52;6.50;;;;;;;4.60;100.00;98627.47;2581942;28;20066;-83
2023/04/17 00:23:36;;;;;;;9.02;5.95;;;;;;;4.90;100.00;98625.75;2581660;28;20049;-83
2023/04/17 00:24:51;;;;;;;9.15;5.75;;;;;;;4.89;100.00;98621.41;2582163;28;20061;-83
2023/04/17 00:26:07;;;;;;;8.98;5.68;;;;;;;4.85;100.00;98619.69;2581853;28;20050;-83
2023/04/17 00:27:23;;;;;;;9.07;5.78;;;;;;;4.86;100.00;98631.78;2582018;28;20042;-83
2023/04/17 00:28:38;;;;;;;7.50;5.15;;;;;;;5.05;100.00;98627.41;2582131;28;20154;-83
2023/04/17 00:29:54;;;;;;;10.80;5.60;;;;;;;5.04;100.00;98627.44;2581952;28;20104;-83
2023/04/17 00:31:09;;;;;;;10.10;5.65;;;;;;;4.79;100.00;98630.94;2581870;28;20046;-83
2023/04/17 00:32:25;;;;;;;8.63;5.38;;;;;;;4.70;100.00;98630.97;2582116;28;20054;-83
2023/04/17 00:33:41;;;;;;;8.63;5.60;;;;;;;4.52;100.00;98627.50;2581666;28;20073;-83
2023/04/17 00:34:56;;;;;;;8.63;5.68;;;;;;;4.42;100.00;98627.50;2581897;28;20065;-83
2023/04/17 00:36:12;;;;;;;10.45;5.80;;;;;;;4.40;100.00;98626.66;2581806;28;20050;-82
2023/04/17 00:37:28;;;;;;;10.15;6.03;;;;;;;4.36;100.00;98623.19;2581391;28;20047;-83
2023/04/17 00:38:43;;;;;;;9.15;6.20;;;;;;;4.32;100.00;98627.50;2581911;28;20053;-83
2023/04/17 00:39:59;;;;;;;10.20;5.63;;;;;;;4.32;100.00;98627.50;2581824;28;20050;-82
2023/04/17 00:41:14;;;;;;;9.10;5.25;;;;;;;4.09;100.00;98630.06;2581750;28;20481;-83
2023/04/17 00:42:30;;;;;;;9.23;5.80;;;;;;;4.22;100.00;98624.03;2581910;28;20371;-83
2023/04/17 00:43:46;;;;;;;12.63;6.45;;;;;;;4.30;100.00;98624.03;2581802;28;20054;-84
2023/04/17 00:45:03;;;;;;;9.70;5.75;;;;;;;4.29;100.00;98622.31;2581793;28;20421;-84
2023/04/17 00:46:19;;;;;;;9.25;5.38;;;;;;;3.95;100.00;98630.91;2581761;28;20490;-83
2023/04/17 00:47:34;;;;;;;8.65;5.50;;;;;;;3.91;100.00;98625.72;2581679;28;20046;-83
2023/04/17 00:48:50;;;;;;;9.25;5.57;;;;;;;3.94;100.00;98626.59;2581906;28;20061;-83
2023/04/17 00:50:07;;;;;;;9.05;5.57;;;;;;;3.96;100.00;98631.78;2581755;28;20129;-83
2023/04/17 00:51:22;;;;;;;9.57;5.80;;;;;;;3.86;100.00;98622.25;2581612;28;20042;-83
2023/04/17 00:52:38;;;;;;;10.73;5.45;;;;;;;3.88;100.00;98628.31;2581904;28;20137;-82
2023/04/17 00:53:55;;;;;;;9.20;4.97;;;;;;;3.83;100.00;98635.22;2581748;28;20560;-82
2023/04/17 00:55:11;;;;;;;9.82;5.60;;;;;;;3.80;100.00;98638.66;2581685;28;20489;-82
2023/04/17 00:56:28;;;;;;;9.05;5.43;;;;;;;3.95;100.00;98628.31;2581797;28;20042;-82
2023/04/17 00:57:44;;;;;;;8.88;5.30;;;;;;;3.89;100.00;98633.50;2581796;28;20125;-83
2023/04/17 00:59:02;;;;;;;8.80;5.38;;;;;;;4.09;100.00;98630.94;2579058;28;20137;-83
2023/04/17 01:00:18;;;;;;;10.27;6.30;;;;;;;4.31;100.00;98630.94;2581712;28;20509;-84
2023/04/17 01:01:34;;;;;;;8.73;5.30;;;;;;;4.40;100.00;98631.81;2581749;28;20104;-83
2023/04/17 01:02:50;;;;;;;11.45;5.70;;;;;;;4.01;100.00;98627.47;2581531;28;20042;-84
2023/04/17 01:04:07;;;;;;;9.10;4.78;;;;;;;3.78;100.00;98624.84;2581841;28;20485;-83
2023/04/17 01:05:24;;;;;;;8.43;5.30;;;;;;;3.79;100.00;98626.56;2581632;28;20084;-83
2023/04/17 01:06:40;;;;;;;8.63;5.45;;;;;;;3.92;100.00;98635.25;2581363;28;20046;-83
2023/04/17 01:07:57;;;;;;;9.85;6.13;;;;;;;4.07;100.00;98630.09;2581870;28;20049;-83
2023/04/17 01:09:13;;;;;;;8.35;5.72;;;;;;;4.24;100.00;98631.81;2581555;28;20130;-83
2023/04/17 01:10:29;;;;;;;10.25;5.82;;;;;;;4.16;100.00;98633.53;2581475;28;20137;-83
2023/04/17 01:11:44;;;;;;;10.13;6.07;;;;;;;4.34;100.00;98635.28;2581713;28;20050;-83
2023/04/17 01:13:05;;;;;;;9.18;5.55;;;;;;;4.41;100.00;98636.16;2581566;28;20050;-83
2023/04/17 01:14:20;;;;;;;10.45;5.95;;;;;;;4.36;100.00;98631.84;2581511;28;20049;-83
2023/04/17 01:15:36;;;;;;;11.85;6.68;;;;;;;4.38;100.00;98634.41;2581513;28;20050;-84
2023/04/17 01:16:52;;;;;;;9.95;6.38;;;;;;;4.27;100.00;98634.41;2581710;28;20061;-83
2023/04/17 01:18:07;;;;;;;9.77;5.85;;;;;;;4.20;100.00;98632.69;2581434;28;20058;-84
2023/04/17 01:19:23;;;;;;;11.60;6.38;;;;;;;4.07;100.00;98634.38;2581788;28;20112;-83
2023/04/17 01:20:39;;;;;;;9.43;6.25;;;;;;;4.14;100.00;98630.97;2581494;28;20077;-83
2023/04/17 01:21:55;;;;;;;11.57;7.15;;;;;;;4.16;100.00;98636.13;2581362;28;20069;-83
2023/04/17 01:23:10;;;;;;;10.77;6.35;;;;;;;4.20;100.00;98627.50;2581389;28;20417;-83
2023/04/17 01:24:26;;;;;;;9.95;6.43;;;;;;;4.08;100.00;98634.41;2581445;28;20513;-83
2023/04/17 01:25:42;;;;;;;10.02;5.72;;;;;;;4.08;100.00;98630.94;2581655;28;20054;-83
2023/04/17 01:26:57;;;;;;;14.45;6.82;;;;;;;4.22;100.00;98634.41;2581550;28;20050;-83
2023/04/17 01:28:13;;;;;;;12.93;5.93;;;;;;;4.03;100.00;98633.50;2581330;28;20050;-83
2023/04/17 01:29:28;;;;;;;11.75;5.80;;;;;;;3.93;100.00;98630.06;2581608;28;20057;-84
2023/04/17 01:30:44;;;;;;;9.40;5.60;;;;;;;3.90;100.00;98636.94;2581640;28;20490;-83
2023/04/17 01:32:00;;;;;;;10.52;5.90;;;;;;;3.93;100.00;98630.06;2581401;28;20047;-83
2023/04/17 01:33:15;;;;;;;10.60;5.90;;;;;;;4.10;100.00;98634.38;2581582;28;20070;-83
2023/04/17 01:34:31;;;;;;;10.35;5.85;;;;;;;4.29;100.00;98632.69;2581175;28;20050;-83
2023/04/17 01:35:47;;;;;;;8.70;5.25;;;;;;;4.28;100.00;98640.47;2581467;28;20069;-83
2023/04/17 01:37:03;;;;;;;9.05;5.50;;;;;;;4.14;100.00;98637.84;2581535;28;20066;-83
2023/04/17 01:38:19;;;;;;;9.23;6.03;;;;;;;4.20;100.00;98638.72;2581369;28;20046;-83
2023/04/17 01:39:35;;;;;;;9.48;5.30;;;;;;;4.00;100.00;98635.25;2581516;28;20050;-84
2023/04/17 01:40:51;;;;;;;8.98;5.15;;;;;;;3.95;100.00;98633.50;2581510;28;20057;-83
2023/04/17 01:42:07;;;;;;;8.48;4.82;;;;;;;4.02;100.00;98636.97;2581316;28;20046;-83
2023/04/17 01:43:22;;;;;;;7.88;4.90;;;;;;;4.15;100.00;98639.59;2581546;28;20046;-84
2023/04/17 01:44:38;;;;;;;6.22;4.55;;;;;;;4.08;100.00;98630.94;2581518;28;20050;-83
2023/04/17 01:45:53;;;;;;;9.23;5.30;;;;;;;4.19;100.00;98642.19;2581483;28;20077;-83
2023/04/17 01:47:09;;;;;;;10.32;5.38;;;;;;;4.26;100.00;98635.28;2581497;28;20057;-82
2023/04/17 01:48:24;;;;;;;9.73;5.32;;;;;;;4.23;100.00;98640.47;2581149;28;20394;-83
2023/04/17 01:49:40;;;;;;;10.30;4.90;;;;;;;4.36;100.00;98646.50;2581672;28;20046;-83
2023/04/17 01:50:55;;;;;;;7.05;4.93;;;;;;;4.26;100.00;98644.75;2583515;28;20046;-83
2023/04/17 01:52:11;;;;;;;9.75;5.68;;;;;;;4.14;100.00;98640.44;2583400;28;20417;-83
2023/04/17 01:53:29;;;;;;;11.35;5.95;;;;;;;4.28;100.00;98643.91;2583508;28;20100;-84
2023/04/17 01:54:44;;;;;;;10.50;5.93;;;;;;;4.40;100.00;98637.88;2583322;28;20050;-83
2023/04/17 01:56:00;;;;;;;9.57;5.70;;;;;;;4.36;100.00;98649.97;2583332;28;20053;-83
2023/04/17 01:57:16;;;;;;;9.43;5.57;;;;;;;4.33;100.00;98643.91;2583411;28;20050;-84
2023/04/17 01:58:31;;;;;;;8.82;4.80;;;;;;;4.32;100.00;98645.63;2583496;28;20053;-83
2023/04/17 01:59:47;;;;;;;10.98;4.85;;;;;;;4.16;100.00;98644.78;2582565;28;20073;-83
2023/04/17 02:01:03;;;;;;;8.82;5.63;;;;;;;4.32;100.00;98645.63;2583179;28;20046;-83
2023/04/17 02:02:18;;;;;;;6.93;5.18;;;;;;;4.23;100.00;98643.06;2583208;28;20050;-83
2023/04/17 02:03:34;;;;;;;11.30;5.85;;;;;;;4.21;100.00;98649.97;2583328;28;20101;-84
2023/04/17 02:04:49;;;;;;;12.45;6.30;;;;;;;4.14;100.00;98643.03;2583440;28;20066;-83
2023/04/17 02:06:05;;;;;;;12.07;6.07;;;;;;;4.35;100.00;98649.97;2581046;28;20042;-83
2023/04/17 02:07:21;;;;;;;10.02;6.07;;;;;;;4.32;100.00;98650.81;2582095;28;20043;-84
2023/04/17 02:08:37;;;;;;;10.38;6.07;;;;;;;4.13;100.00;98649.97;2582693;28;20046;-83
2023/04/17 02:09:52;;;;;;;21.80;7.22;;;;;;;3.89;100.00;98648.16;2583195;28;20398;-83
2023/04/17 02:11:09;;;;;;;18.85;7.45;;;;;;;4.06;100.00;98651.69;2583462;28;20081;-83
2023/04/17 02:12:24;;;;;;;15.60;7.35;;;;;;;3.92;100.00;98650.78;2583351;28;20076;-83
2023/04/17 02:13:40;;;;;;;17.77;7.72;;;;;;;4.16;100.00;98651.69;2583190;28;20053;-83
2023/04/17 02:14:59;;;;;;;13.27;7.43;;;;;;;4.31;100.00;98650.84;2583363;28;20448;-83
2023/04/17 02:16:15;;;;;;;13.75;6.80;;;;;;;4.40;100.00;98655.16;2583346;28;20054;-83
2023/04/17 02:17:31;;;;;;;13.90;7.70;;;;;;;4.48;100.00;98648.25;2583145;28;20042;-83
2023/04/17 02:18:47;;;;;;;14.70;7.60;;;;;;;4.55;100.00;98654.31;2583039;28;20498;-83
2023/04/17 02:20:05;;;;;;;15.75;7.10;;;;;;;4.58;100.00;98646.53;2583172;28;20050;-83
2023/04/17 02:21:21;;;;;;;13.85;6.82;;;;;;;4.60;100.00;98652.56;2582975;28;20054;-84
2023/04/17 02:22:36;;;;;;;9.93;6.03;;;;;;;4.63;100.00;98652.56;2583441;28;20064;-83
2023/04/17 02:23:52;;;;;;;14.73;7.30;;;;;;;4.58;100.00;98656.91;2583190;28;20101;-83
2023/04/17 02:25:08;;;;;;;16.73;8.05;;;;;;;4.65;100.00;98650.81;2583152;28;20050;-83
2023/04/17 02:26:24;;;;;;;15.48;6.72;;;;;;;4.69;100.00;98657.75;2583200;28;20048;-83
2023/04/17 02:27:39;;;;;;;14.63;6.63;;;;;;;4.74;100.00;98650.81;2583014;28;20057;-83
2023/04/17 02:28:55;;;;;;;16.42;6.88;;;;;;;4.77;100.00;98653.41;2582966;28;20046;-83
2023/04/17 02:30:11;;;;;;;38.90;7.43;;;;;;;4.75;100.00;98654.28;2583183;28;20046;-82
2023/04/17 02:31:26;;;;;;;17.40;7.28;;;;;;;4.78;100.00;98651.69;2582956;28;20398;-83
2023/04/17 02:32:43;;;;;;;20.65;7.10;;;;;;;4.73;100.00;98650.81;2583220;28;20096;-83
2023/04/17 02:33:59;;;;;;;14.65;6.90;;;;;;;4.56;100.00;98658.63;2583143;28;20046;-82
2023/04/17 02:35:15;;;;;;;15.40;7.18;;;;;;;4.53;100.00;98652.56;2582695;28;20058;-83
2023/04/17 02:36:30;;;;;;;15.82;7.30;;;;;;;4.43;100.00;98650.84;2583134;28;20051;-83
2023/04/17 02:37:46;;;;;;;13.57;7.28;;;;;;;4.50;100.00;98656.91;2583126;28;20043;-83
2023/04/17 02:39:02;;;;;;;15.98;7.35;;;;;;;4.43;100.00;98655.16;2582932;28;20105;-83
2023/04/17 02:40:18;;;;;;;20.42;7.35;;;;;;;4.60;100.00;98653.41;2583143;28;20073;-83
2023/04/17 02:41:33;;;;;;;14.10;7.40;;;;;;;4.67;100.00;98659.47;2582869;28;20101;-83
2023/04/17 02:42:49;;;;;;;26.15;7.90;;;;;;;4.64;100.00;98652.56;2583010;28;20041;-83
2023/04/17 02:44:04;;;;;;;28.75;7.53;;;;;;;4.68;100.00;98653.44;2582960;28;20054;-83
2023/04/17 02:45:20;;;;;;;23.65;7.40;;;;;;;4.79;100.00;98653.41;2582872;28;20077;-83
2023/04/17 02:46:36;;;;;;;19.13;7.05;;;;;;;4.75;100.00;98654.28;2582975;28;20084;-83
2023/04/17 02:47:51;;;;;;;21.05;7.25;;;;;;;4.56;100.00;98646.50;2583032;28;20042;-83
2023/04/17 02:49:07;;;;;;;17.80;7.07;;;;;;;4.50;100.00;98651.72;2582015;28;20046;-83
2023/04/17 02:50:23;;;;;;;21.42;8.30;;;;;;;4.58;100.00;98649.13;2582648;28;20054;-83
2023/04/17 02:51:38;;;;;;;20.80;8.10;;;;;;;4.63;100.00;98648.25;2582071;28;20046;-83
2023/04/17 02:52:54;;;;;;;14.30;7.22;;;;;;;4.55;100.00;98656.91;2582109;28;20410;-83
2023/04/17 02:54:09;;;;;;;15.02;7.55;;;;;;;4.40;100.00;98655.16;2582420;28;20077;-83
2023/04/17 02:55:25;;;;;;;14.40;7.60;;;;;;;4.50;100.00;98652.56;2582865;28;20049;-83
2023/04/17 02:56:41;;;;;;;11.75;7.57;;;;;;;4.50;100.00;98647.38;2582825;28;20046;-83
2023/04/17 02:57:57;;;;;;;13.60;7.13;;;;;;;4.31;100.00;98650.84;2582075;28;20493;-83
2023/04/17 02:59:12;;;;;;;13.23;6.97;;;;;;;4.45;100.00;98648.25;2582403;28;20501;-83
2023/04/17 03:00:28;;;;;;;13.73;7.00;;;;;;;4.63;100.00;98647.38;2582616;28;20433;-83
2023/04/17 03:01:44;;;;;;;9.88;6.43;;;;;;;4.49;100.00;98650.84;2582562;28;20062;-83
2023/04/17 03:03:01;;;;;;;13.02;6.50;;;;;;;4.39;100.00;98649.09;2582825;28;20567;-83
2023/04/17 03:04:17;;;;;;;12.25;6.75;;;;;;;4.35;100.00;98648.25;2582975;28;20077;-83
2023/04/17 03:05:32;;;;;;;12.65;6.32;;;;;;;4.42;100.00;98654.31;2581903;28;20485;-83
2023/04/17 03:06:48;;;;;;;10.63;6.43;;;;;;;4.46;100.00;98653.44;2582213;28;20042;-83
2023/04/17 03:08:04;;;;;;;11.85;6.30;;;;;;;4.40;100.00;98649.97;2581203;28;20038;-83
2023/04/17 03:09:21;;;;;;;11.13;6.40;;;;;;;4.32;100.00;98650.81;2581671;28;20050;-83
2023/04/17 03:10:36;;;;;;;12.18;6.38;;;;;;;4.53;100.00;98644.78;2582567;28;20134;-83
2023/04/17 03:11:52;;;;;;;10.07;5.82;;;;;;;4.47;100.00;98655.16;2582655;28;20085;-83
2023/04/17 03:13:07;;;;;;;11.25;6.38;;;;;;;4.68;100.00;98655.16;2582633;28;20050;-83
2023/04/17 03:14:23;;;;;;;9.77;6.13;;;;;;;4.80;100.00;98656.00;2582764;28;20042;-84
2023/04/17 03:15:39;;;;;;;12.18;6.85;;;;;;;4.89;100.00;98651.66;2582851;28;20081;-83
2023/04/17 03:16:54;;;;;;;11.52;6.30;;;;;;;5.01;100.00;98656.84;2582604;28;20049;-83
2023/04/17 03:18:10;;;;;;;10.27;5.50;;;;;;;5.12;100.00;98656.81;2582549;28;20053;-83
2023/04/17 03:19:25;;;;;;;9.75;6.32;;;;;;;5.17;100.00;98660.28;2582597;28;20046;-83
2023/04/17 03:20:41;;;;;;;8.75;5.53;;;;;;;5.23;100.00;98665.44;2582700;28;20046;-83
2023/04/17 03:21:56;;;;;;;11.43;5.53;;;;;;;5.25;100.00;98659.38;2582768;28;20042;-83
2023/04/17 03:23:12;;;;;;;10.60;5.95;;;;;;;5.34;100.00;98661.97;2581633;28;20121;-83
2023/04/17 03:24:28;;;;;;;13.25;5.65;;;;;;;5.33;100.00;98662.81;2582278;28;20097;-84
2023/04/17 03:25:44;;;;;;;10.35;6.32;;;;;;;5.28;100.00;98661.97;2582675;28;20042;-83
2023/04/17 03:27:01;;;;;;;10.60;5.95;;;;;;;5.31;100.00;98669.75;2582186;28;20085;-83
2023/04/17 03:28:17;;;;;;;12.73;6.28;;;;;;;5.33;100.00;98665.41;2582669;28;20532;-83
2023/04/17 03:29:32;;;;;;;10.05;6.35;;;;;;;5.29;100.00;98664.56;2581979;28;20555;-83
2023/04/17 03:30:49;;;;;;;12.70;6.45;;;;;;;5.36;100.00;98662.81;2577468;28;20047;-83
2023/04/17 03:32:05;;;;;;;9.95;6.15;;;;;;;5.45;100.00;98670.56;2577969;28;20161;-83
2023/04/17 03:33:20;;;;;;;12.55;6.22;;;;;;;5.49;100.00;98667.09;2582005;28;20061;-83
2023/04/17 03:34:37;;;;;;;10.45;5.93;;;;;;;5.57;100.00;98663.59;2582157;28;20529;-83
2023/04/17 03:35:52;;;;;;;12.10;6.63;;;;;;;5.57;100.00;98674.84;2582240;28;20058;-83
2023/04/17 03:37:08;;;;;;;8.88;5.70;;;;;;;5.59;100.00;98662.72;2582317;28;20046;-83
2023/04/17 03:38:23;;;;;;;10.20;5.97;;;;;;;5.46;100.00;98666.22;2582509;28;20100;-82
2023/04/17 03:39:39;;;;;;;10.27;5.95;;;;;;;5.49;100.00;98667.09;2582555;28;20043;-83
2023/04/17 03:40:54;;;;;;;11.18;6.30;;;;;;;5.55;100.00;98671.41;2582508;28;20046;-83
2023/04/17 03:42:13;;;;;;;10.80;6.38;;;;;;;5.57;100.00;98669.66;2582473;28;20058;-83
2023/04/17 03:43:28;;;;;;;11.60;6.10;;;;;;;5.63;100.00;98669.63;2581447;28;20433;-83
2023/04/17 03:44:44;;;;;;;9.57;5.75;;;;;;;5.69;100.00;98675.69;2580683;28;20050;-83
2023/04/17 03:46:00;;;;;;;10.52;6.15;;;;;;;5.69;100.00;98667.88;2581765;28;20596;-84
2023/04/17 03:47:15;;;;;;;11.95;6.05;;;;;;;5.67;100.00;98677.41;2581633;28;20042;-83
2023/04/17 03:48:31;;;;;;;12.32;6.45;;;;;;;5.48;100.00;98673.16;2581835;28;20050;-83
2023/04/17 03:49:47;;;;;;;11.18;6.32;;;;;;;5.64;100.00;98673.94;2582514;28;20399;-83
2023/04/17 03:51:02;;;;;;;12.63;6.00;;;;;;;5.73;100.00;98673.06;2582310;28;20042;-83
2023/04/17 03:52:18;;;;;;;10.25;5.80;;;;;;;5.73;100.00;98675.66;2582251;28;20137;-83
2023/04/17 03:53:34;;;;;;;12.40;6.70;;;;;;;5.76;100.00;98673.03;2582404;28;20537;-83
2023/04/17 03:54:50;;;;;;;11.50;6.68;;;;;;;5.81;100.00;98678.22;2582125;28;20043;-83
2023/04/17 03:56:06;;;;;;;12.98;6.47;;;;;;;5.84;100.00;98674.72;2578273;28;20046;-84
2023/04/17 03:57:21;;;;;;;10.52;6.43;;;;;;;5.76;100.00;98683.44;2581677;28;20390;-83
2023/04/17 03:58:37;;;;;;;11.82;6.00;;;;;;;5.70;100.00;98682.59;2582219;28;20046;-83
2023/04/17 03:59:52;;;;;;;9.60;5.93;;;;;;;5.77;100.00;98676.47;2582336;28;20062;-83
2023/04/17 04:01:09;;;;;;;12.07;6.80;;;;;;;5.62;100.00;98685.22;2578942;28;20089;-83
2023/04/17 04:02:25;;;;;;;11.77;6.43;;;;;;;5.53;100.00;98678.34;2582183;28;20042;-83
2023/04/17 04:03:40;;;;;;;12.27;6.75;;;;;;;5.46;100.00;98685.28;2582413;28;20100;-83
2023/04/17 04:04:56;;;;;;;13.15;6.50;;;;;;;5.54;100.00;98684.38;2582242;28;20099;-83
2023/04/17 04:06:12;;;;;;;10.82;6.63;;;;;;;5.58;100.00;98686.09;2582227;28;20046;-83
2023/04/17 04:07:27;;;;;;;9.60;6.82;;;;;;;5.77;100.00;98682.56;2581410;28;20042;-83
2023/04/17 04:08:44;;;;;;;12.40;7.07;;;;;;;5.71;100.00;98677.38;2579701;28;20060;-83
2023/04/17 04:09:59;;;;;;;13.15;7.53;;;;;;;5.62;100.00;98685.22;2581991;28;20047;-83
2023/04/17 04:11:15;;;;;;;14.35;7.38;;;;;;;5.63;100.00;98684.34;2576668;28;20038;-83
2023/04/17 04:12:31;;;;;;;14.50;7.63;;;;;;;5.74;100.00;98679.09;2564841;28;20102;-83
2023/04/17 04:13:46;;;;;;;12.25;7.65;;;;;;;5.72;100.00;98681.69;2573018;28;20109;-84
2023/04/17 04:15:02;;;;;;;13.43;7.45;;;;;;;5.79;100.00;98687.72;2575830;28;20518;-83
2023/04/17 04:16:18;;;;;;;12.63;7.20;;;;;;;5.85;100.00;98684.25;2581630;28;20513;-83
2023/04/17 04:17:33;;;;;;;14.38;7.75;;;;;;;5.65;100.00;98683.47;2581400;28;20055;-83
2023/04/17 04:18:49;;;;;;;14.10;7.95;;;;;;;5.86;100.00;98680.78;2575183;28;20046;-83
2023/04/17 04:20:07;;;;;;;13.75;7.80;;;;;;;5.72;100.00;98681.69;2581702;28;20042;-83
2023/04/17 04:21:23;;;;;;;15.38;8.07;;;;;;;5.84;100.00;98687.72;2582227;28;20387;-83
2023/04/17 04:22:40;;;;;;;17.13;8.18;;;;;;;5.71;100.00;98686.91;2581894;28;20092;-84
2023/04/17 04:23:56;;;;;;;13.90;8.15;;;;;;;5.67;100.00;98691.25;2576289;28;20540;-83
2023/04/17 04:25:11;;;;;;;14.10;7.65;;;;;;;5.59;100.00;98688.69;2581952;28;20046;-83
2023/04/17 04:26:27;;;;;;;15.20;8.60;;;;;;;5.71;100.00;98685.16;2581213;28;20066;-83
2023/04/17 04:27:48;;;;;;;16.02;8.02;;;;;;;5.72;100.00;98683.44;2581206;28;20669;-83
2023/04/17 04:29:04;;;;;;;16.27;7.72;;;;;;;5.71;100.00;98682.56;2581797;28;20061;-83
2023/04/17 04:30:20;;;;;;;13.82;7.72;;;;;;;5.72;100.00;98684.28;2581537;28;20046;-83
2023/04/17 04:31:36;;;;;;;14.93;7.20;;;;;;;5.89;100.00;98679.03;2581987;28;20505;-83
2023/04/17 04:32:52;;;;;;;13.55;7.50;;;;;;;5.79;100.00;98685.13;2581998;28;20065;-83
2023/04/17 04:34:08;;;;;;;13.32;8.02;;;;;;;5.83;100.00;98683.38;2581676;28;20054;-83
2023/04/17 04:35:24;;;;;;;13.77;7.82;;;;;;;6.04;100.00;98685.03;2581533;28;20038;-83
2023/04/17 04:36:48;;;;;;;13.60;7.97;;;;;;;6.17;100.00;98683.25;2582083;28;20097;-83
2023/04/17 04:38:04;;;;;;;14.25;7.78;;;;;;;6.11;100.00;98680.69;2579195;28;20046;-83
2023/04/17 04:39:20;;;;;;;15.48;8.32;;;;;;;6.05;100.00;98687.66;2575915;28;20042;-83
2023/04/17 04:40:37;;;;;;;14.43;7.97;;;;;;;6.02;100.00;98682.47;2576523;28;20101;-83
2023/04/17 04:41:52;;;;;;;14.23;7.95;;;;;;;6.08;100.00;98689.38;2576721;28;20050;-83
2023/04/17 04:43:11;;;;;;;15.60;7.57;;;;;;;6.08;100.00;98690.22;2576586;28;20496;-83
2023/04/17 04:44:26;;;;;;;15.82;7.93;;;;;;;6.05;100.00;98691.97;2575106;28;20047;-82
2023/04/17 04:45:42;;;;;;;16.90;8.98;;;;;;;5.91;100.00;98692.03;2575129;28;20520;-83
2023/04/17 04:46:57;;;;;;;12.27;7.15;;;;;;;5.90;100.00;98698.09;2575834;28;20046;-84
2023/04/17 04:48:13;;;;;;;12.20;7.22;;;;;;;5.93;100.00;98690.28;2575309;28;20063;-84
2023/04/17 04:49:29;;;;;;;16.50;8.77;;;;;;;5.98;100.00;98698.06;2578188;28;20042;-84
2023/04/17 04:50:45;;;;;;;13.70;6.97;;;;;;;5.92;100.00;98694.59;2578153;28;20125;-83
2023/04/17 04:52:00;;;;;;;12.25;7.10;;;;;;;5.96;100.00;98690.25;2576516;28;20048;-83
2023/04/17 04:53:16;;;;;;;15.27;7.57;;;;;;;6.05;100.00;98694.56;2576979;28;20505;-83
2023/04/17 04:54:32;;;;;;;18.30;9.18;;;;;;;6.33;100.00;98690.06;2576748;28;20093;-85
2023/04/17 04:55:47;;;;;;;13.32;7.65;;;;;;;6.24;100.00;98697.94;2574509;28;20070;-84
2023/04/17 04:57:03;;;;;;;15.38;7.53;;;;;;;6.22;100.00;98697.06;2571648;28;20047;-85
2023/04/17 04:58:19;;;;;;;13.38;7.13;;;;;;;6.05;100.00;98692.84;2571558;28;20077;-84
2023/04/17 04:59:34;;;;;;;13.10;7.72;;;;;;;6.10;100.00;98700.63;2571709;28;20039;-84
2023/04/17 05:00:50;;;;;;;11.75;6.97;;;;;;;6.05;100.00;98692.84;2571610;28;20077;-84
2023/04/17 05:02:06;;;;;;;13.07;7.18;;;;;;;6.00;100.00;98694.56;2571491;28;20126;-84
2023/04/17 05:03:22;;;;;;;12.70;7.18;;;;;;;6.07;100.00;98700.63;2571579;28;20098;-84
2023/04/17 05:04:37;;;;;;;13.00;7.50;;;;;;;6.19;100.00;98695.34;2571384;28;20059;-85
2023/04/17 05:05:53;;;;;;;15.35;7.75;;;;;;;6.23;100.00;98693.59;2571676;28;20062;-84
2023/04/17 05:07:09;;;;;;;12.18;7.55;;;;;;;6.39;100.00;98694.38;2571564;28;20054;-84
2023/04/17 05:08:24;;;;;;;14.07;7.78;;;;;;;6.35;100.00;98695.25;2571333;28;20043;-84
2023/04/17 05:09:41;;;;;;;15.00;7.15;;;;;;;6.38;100.00;98694.38;2571660;28;20047;-84
2023/04/17 05:10:57;;;;;;;14.13;7.80;;;;;;;6.49;100.00;98697.75;2571494;28;20058;-85
2023/04/17 05:12:12;;;;;;;14.75;8.02;;;;;;;6.46;100.00;98697.78;2571477;28;20437;-84
2023/04/17 05:13:30;;;;;;;11.80;6.68;;;;;;;6.44;100.00;98699.53;2571663;28;20054;-84
2023/04/17 05:14:46;;;;;;;13.35;7.45;;;;;;;6.51;100.00;98698.63;2571416;28;20486;-87
2023/04/17 05:16:02;;;;;;;11.65;7.32;;;;;;;6.56;100.00;98712.44;2571487;28;20038;-84
2023/04/17 05:17:18;;;;;;;11.00;6.75;;;;;;;6.44;100.00;98702.16;2570856;28;20529;-84
2023/04/17 05:18:33;;;;;;;12.35;7.03;;;;;;;6.50;100.00;98704.69;2570938;28;20053;-85
2023/04/17 05:19:49;;;;;;;12.30;7.43;;;;;;;6.64;100.00;98704.59;2571447;28;20410;-85
2023/04/17 05:21:05;;;;;;;14.43;7.65;;;;;;;6.59;100.00;98712.44;2571373;28;20074;-84
2023/04/17 05:22:20;;;;;;;13.63;7.38;;;;;;;6.66;100.00;98712.38;2579342;28;20055;-85
2023/04/17 05:23:35;;;;;;;11.60;6.70;;;;;;;6.74;100.00;98714.03;2581341;28;20413;-84
2023/04/17 05:24:51;;;;;;;11.88;6.88;;;;;;;6.77;100.00;98713.16;2581486;28;20070;-84
2023/04/17 05:26:07;;;;;;;11.73;6.78;;;;;;;6.54;100.00;98705.53;2580569;28;20042;-84
2023/04/17 05:27:25;;;;;;;10.95;7.07;;;;;;;6.49;100.00;98706.41;2581059;28;20050;-84
2023/04/17 05:28:44;;;;;;;10.85;6.65;;;;;;;6.44;100.00;98704.75;2581419;28;20129;-88
2023/04/17 05:29:59;;;;;;;13.77;6.70;;;;;;;6.63;100.00;98710.66;2580461;28;20489;-89
2023/04/17 05:31:15;;;;;;;11.07;7.28;;;;;;;6.83;100.00;98707.03;2581283;28;20054;-82
2023/04/17 05:32:32;;;;;;;10.98;6.95;;;;;;;6.72;100.00;98705.38;2581197;28;20125;-82
2023/04/17 05:33:47;;;;;;;12.80;7.32;;;;;;;6.59;100.00;98709.84;2581000;28;20501;-82
2023/04/17 05:35:05;;;;;;;12.82;8.02;;;;;;;6.76;100.00;98708.84;2580923;28;20085;-81
2023/04/17 05:36:21;;;;;;;13.38;7.30;;;;;;;6.80;100.00;98710.53;2581243;28;20089;-82
2023/04/17 05:37:36;;;;;;;12.68;6.93;;;;;;;6.78;100.00;98710.56;2580960;28;20050;-82
2023/04/17 05:38:52;;;;;;;11.57;7.35;;;;;;;6.74;100.00;98714.03;2581104;28;20045;-81
2023/04/17 05:40:08;;;;;;;12.52;7.20;;;;;;;6.78;100.00;98713.16;2581145;28;20045;-81
2023/04/17 05:41:25;;;;;;;10.93;6.53;;;;;;;6.78;100.00;98713.16;2580993;28;20050;-82
2023/04/17 05:42:40;;;;;;;14.35;7.00;;;;;;;6.78;100.00;98714.88;2580409;28;20042;-81
2023/04/17 05:43:56;;;;;;;11.70;6.88;;;;;;;6.81;100.00;98709.66;2580576;28;20076;-81
2023/04/17 05:45:13;;;;;;;12.23;7.35;;;;;;;7.03;100.00;98712.91;2581021;28;20050;-81
2023/04/17 05:46:28;;;;;;;12.63;7.00;;;;;;;7.02;100.00;98718.16;2581235;28;20505;-81
2023/04/17 05:47:44;;;;;;;11.52;6.72;;;;;;;7.03;100.00;98717.28;2580904;28;20069;-82
2023/04/17 05:49:00;;;;;;;11.98;7.03;;;;;;;6.96;100.00;98713.88;2580979;28;20042;-82
2023/04/17 05:50:15;;;;;;;13.93;7.47;;;;;;;7.08;100.00;98712.88;2581116;28;20464;-81
2023/04/17 05:51:31;;;;;;;13.90;8.00;;;;;;;7.14;100.00;98711.97;2581065;28;20046;-81
2023/04/17 05:52:47;;;;;;;13.43;7.43;;;;;;;7.11;100.00;98712.84;2580957;28;20101;-81
2023/04/17 05:54:03;;;;;;;11.57;6.93;;;;;;;7.17;100.00;98709.31;2580334;28;20049;-81